createdAt,value
2023-01-22T00:00:15.730Z,100940.38
2023-01-22T00:05:16.191Z,100977.22
2023-01-22T00:10:15.320Z,100966.34
2023-01-22T00:15:14.408Z,100968.66
2023-01-22T00:20:14.581Z,100955.41
2023-01-22T00:25:14.981Z,100960.78
2023-01-22T00:30:14.149Z,100994.31
2023-01-22T00:35:12.901Z,100991.53
2023-01-22T00:40:13.099Z,100985.38
2023-01-22T00:45:15.289Z,100996.03
2023-01-22T00:50:14.142Z,101034.69
2023-01-22T00:55:13.128Z,101046.13
2023-01-22T01:00:16.176Z,101060.91
2023-01-22T01:05:16.200Z,101075.88
2023-01-22T01:10:16.803Z,101087.47
2023-01-22T01:15:17.272Z,101087.19
2023-01-22T01:20:16.997Z,101080.69
2023-01-22T01:25:15.944Z,101091.53
2023-01-22T01:30:16.864Z,101102.44
2023-01-22T01:35:16.061Z,101110.97
2023-01-22T01:40:15.052Z,101110.78
2023-01-22T01:45:24.278Z,101120.19
2023-01-22T01:50:26.671Z,101115.75
2023-01-22T01:55:28.891Z,101130.00
2023-01-22T02:00:32.618Z,101129.63
2023-01-22T02:05:39.617Z,101127.34
2023-01-22T02:10:39.422Z,101136.47
2023-01-22T02:15:40.615Z,101122.25
2023-01-22T02:20:41.467Z,101126.00
2023-01-22T02:25:40.326Z,101126.47
2023-01-22T02:30:39.174Z,101125.53
2023-01-22T02:35:37.907Z,101128.88
2023-01-22T02:40:49.221Z,101115.53
2023-01-22T02:45:50.990Z,101116.88
2023-01-22T02:50:50.261Z,101123.09
2023-01-22T02:55:50.497Z,101112.91
2023-01-22T03:00:49.310Z,101104.94
2023-01-22T03:05:52.003Z,101099.47
2023-01-22T03:10:52.238Z,101113.81
2023-01-22T03:16:08.742Z,101114.47
2023-01-22T03:21:20.402Z,101107.19
2023-01-22T03:26:22.152Z,101094.31
2023-01-22T03:31:21.287Z,101092.03
2023-01-22T03:36:20.505Z,101087.88
2023-01-22T03:41:24.795Z,101088.88
2023-01-22T03:46:23.750Z,101084.34
2023-01-22T03:51:26.399Z,101093.47
2023-01-22T03:56:27.487Z,101082.72
2023-01-22T04:01:31.466Z,101094.03
2023-01-22T04:06:31.484Z,101092.31
2023-01-22T04:11:31.990Z,101096.97
2023-01-22T04:16:31.031Z,101107.22
2023-01-22T04:21:32.532Z,101110.91
2023-01-22T04:26:34.655Z,101116.50
2023-01-22T04:31:35.374Z,101123.34
2023-01-22T04:36:52.555Z,101129.16
2023-01-22T04:41:54.057Z,101134.25
2023-01-22T04:46:52.959Z,101142.34
2023-01-22T04:51:54.224Z,101147.41
2023-01-22T04:56:54.749Z,101148.25
2023-01-22T05:01:53.534Z,101153.56
2023-01-22T05:06:56.687Z,101160.25
2023-01-22T05:11:57.053Z,101164.44
2023-01-22T05:16:56.727Z,101171.28
2023-01-22T05:21:55.619Z,101174.69
2023-01-22T05:26:56.207Z,101182.88
2023-01-22T05:32:00.176Z,101193.66
2023-01-22T05:37:03.334Z,101196.00
2023-01-22T05:42:05.983Z,101202.13
2023-01-22T05:47:05.767Z,101207.97
2023-01-22T05:52:15.808Z,101213.94
2023-01-22T05:57:17.388Z,101228.56
2023-01-22T06:02:34.254Z,101229.84
2023-01-22T06:07:33.426Z,101237.19
2023-01-22T06:12:34.697Z,101238.72
2023-01-22T06:17:33.665Z,101248.22
2023-01-22T06:22:33.748Z,101260.69
2023-01-22T06:27:35.785Z,101268.66
2023-01-22T06:32:34.631Z,101266.78
2023-01-22T06:37:34.099Z,101276.00
2023-01-22T06:42:33.507Z,101283.84
2023-01-22T06:47:33.946Z,101273.88
2023-01-22T06:52:34.336Z,101285.88
2023-01-22T06:57:33.172Z,101287.47
2023-01-22T07:02:33.379Z,101296.34
2023-01-22T07:07:32.172Z,101294.38
2023-01-22T07:12:30.950Z,101302.63
2023-01-22T07:17:29.796Z,101313.78
2023-01-22T07:22:31.274Z,101316.31
2023-01-22T07:27:30.491Z,101315.84
2023-01-22T07:32:29.342Z,101317.66
2023-01-22T07:37:29.583Z,101327.53
2023-01-22T07:42:28.317Z,101334.28
2023-01-22T07:47:27.235Z,101339.03
2023-01-22T07:52:26.112Z,101339.00
2023-01-22T07:57:26.270Z,101353.22
2023-01-22T08:02:25.197Z,101363.72
2023-01-22T08:07:27.780Z,101373.34
2023-01-22T08:12:28.292Z,101378.81
2023-01-22T08:17:27.061Z,101379.78
2023-01-22T08:22:25.894Z,101388.91
2023-01-22T08:27:24.840Z,101382.47
2023-01-22T08:32:25.103Z,101382.13
2023-01-22T08:37:24.633Z,101383.53
2023-01-22T08:42:23.469Z,101395.78
2023-01-22T08:47:22.518Z,101394.13
2023-01-22T08:52:22.688Z,101398.00
2023-01-22T08:57:21.511Z,101401.50
2023-01-22T09:02:20.500Z,101404.50
2023-01-22T09:07:19.273Z,101411.88
2023-01-22T09:12:19.520Z,101417.63
2023-01-22T09:17:18.561Z,101412.09
2023-01-22T09:22:17.538Z,101418.75
2023-01-22T09:27:16.244Z,101420.13
2023-01-22T09:32:16.512Z,101416.22
2023-01-22T09:37:15.475Z,101419.50
2023-01-22T09:42:20.554Z,101415.06
2023-01-22T09:47:26.668Z,101419.56
2023-01-22T09:52:29.737Z,101415.78
2023-01-22T09:57:32.516Z,101422.78
2023-01-22T10:02:38.809Z,101411.03
2023-01-22T10:07:42.627Z,101410.75
2023-01-22T10:12:41.504Z,101411.75
2023-01-22T10:17:42.934Z,101416.03
2023-01-22T10:22:41.876Z,101415.78
2023-01-22T10:27:41.246Z,101403.47
2023-01-22T10:32:41.927Z,101416.06
2023-01-22T10:37:45.304Z,101416.06
2023-01-22T10:42:44.123Z,101406.72
2023-01-22T10:47:44.257Z,101408.75
2023-01-22T10:52:45.768Z,101404.69
2023-01-22T10:57:53.741Z,101401.66
2023-01-22T11:02:54.149Z,101402.03
2023-01-22T11:07:55.704Z,101398.47
2023-01-22T11:12:59.585Z,101394.72
2023-01-22T11:18:02.741Z,101397.69
2023-01-22T11:23:07.415Z,101399.03
2023-01-22T11:28:17.880Z,101404.53
2023-01-22T11:33:32.263Z,101397.09
2023-01-22T11:38:39.571Z,101407.84
2023-01-22T11:43:56.818Z,101404.03
2023-01-22T11:49:07.322Z,101406.81
2023-01-22T11:54:27.565Z,101404.09
2023-01-22T11:59:46.096Z,101401.72
2023-01-22T12:05:18.697Z,101398.50
2023-01-22T12:10:42.766Z,101404.66
2023-01-22T12:15:48.792Z,101405.78
2023-01-22T12:21:10.446Z,101413.03
2023-01-22T12:26:14.793Z,101416.78
2023-01-22T12:31:19.519Z,101413.13
2023-01-22T12:36:23.068Z,101423.03
2023-01-22T12:41:42.869Z,101423.94
2023-01-22T12:46:51.871Z,101425.31
2023-01-22T12:51:54.183Z,101438.09
2023-01-22T12:56:56.634Z,101433.00
2023-01-22T13:02:00.518Z,101435.03
2023-01-22T13:07:21.342Z,101435.66
2023-01-22T13:12:28.507Z,101436.34
2023-01-22T13:17:31.020Z,101442.72
2023-01-22T13:22:32.509Z,101455.91
2023-01-22T13:27:34.653Z,101452.91
2023-01-22T13:32:33.403Z,101451.13
2023-01-22T13:37:38.324Z,101458.97
2023-01-22T13:42:37.123Z,101458.56
2023-01-22T13:47:37.103Z,101471.53
2023-01-22T13:52:37.418Z,101472.31
2023-01-22T13:57:36.326Z,101473.06
2023-01-22T14:02:36.434Z,101481.03
2023-01-22T14:07:38.117Z,101484.44
2023-01-22T14:12:36.873Z,101491.38
2023-01-22T14:17:35.644Z,101493.13
2023-01-22T14:22:34.429Z,101501.16
2023-01-22T14:27:43.545Z,101505.28
2023-01-22T14:32:42.766Z,101512.19
2023-01-22T14:37:41.766Z,101518.28
2023-01-22T14:42:42.500Z,101521.78
2023-01-22T14:47:41.268Z,101521.94
2023-01-22T14:52:40.279Z,101514.94
2023-01-22T14:57:39.414Z,101518.63
2023-01-22T15:02:40.142Z,101528.44
2023-01-22T15:07:39.881Z,101530.22
2023-01-22T15:12:38.913Z,101531.94
2023-01-22T15:17:39.223Z,101537.41
2023-01-22T15:22:37.966Z,101538.44
2023-01-22T15:27:36.761Z,101544.72
2023-01-22T15:32:35.543Z,101551.91
2023-01-22T15:37:35.909Z,101555.69
2023-01-22T15:42:35.778Z,101554.03
2023-01-22T15:47:34.768Z,101568.31
2023-01-22T15:52:33.576Z,101567.63
2023-01-22T15:57:33.871Z,101566.94
2023-01-22T16:02:32.809Z,101575.31
2023-01-22T16:07:31.702Z,101577.31
2023-01-22T16:12:31.286Z,101589.50
2023-01-22T16:17:31.558Z,101588.72
2023-01-22T16:22:30.285Z,101594.88
2023-01-22T16:27:30.390Z,101594.88
2023-01-22T16:32:29.102Z,101600.16
2023-01-22T16:37:29.318Z,101599.41
2023-01-22T16:42:28.230Z,101603.91
2023-01-22T16:47:27.152Z,101618.38
2023-01-22T16:52:25.952Z,101619.22
2023-01-22T16:57:26.233Z,101619.31
2023-01-22T17:02:25.133Z,101625.63
2023-01-22T17:07:33.218Z,101631.75
2023-01-22T17:12:34.159Z,101642.19
2023-01-22T17:17:33.195Z,101633.56
2023-01-22T17:22:33.258Z,101634.16
2023-01-22T17:27:33.762Z,101644.09
2023-01-22T17:32:34.118Z,101649.22
2023-01-22T17:37:33.095Z,101655.72
2023-01-22T17:42:33.570Z,101660.22
2023-01-22T17:47:39.744Z,101667.03
2023-01-22T17:52:38.648Z,101675.06
2023-01-22T17:57:41.422Z,101669.91
2023-01-22T18:02:41.913Z,101669.75
2023-01-22T18:07:41.452Z,101680.47
2023-01-22T18:12:42.372Z,101687.13
2023-01-22T18:17:41.272Z,101692.63
2023-01-22T18:22:40.188Z,101696.97
2023-01-22T18:27:39.255Z,101712.13
2023-01-22T18:32:39.554Z,101715.34
2023-01-22T18:37:38.491Z,101727.09
2023-01-22T18:42:40.179Z,101730.38
2023-01-22T18:47:40.547Z,101732.38
2023-01-22T18:52:39.518Z,101745.28
2023-01-22T18:57:57.044Z,101760.44
2023-01-22T19:03:00.614Z,101761.84
2023-01-22T19:07:59.586Z,101777.69
2023-01-22T19:12:58.561Z,101773.75
2023-01-22T19:17:57.387Z,101782.66
2023-01-22T19:23:00.195Z,101782.06
2023-01-22T19:27:59.051Z,101788.41
2023-01-22T19:32:57.794Z,101793.47
2023-01-22T19:37:58.101Z,101787.16
2023-01-22T19:42:57.341Z,101800.13
2023-01-22T19:47:59.389Z,101791.25
2023-01-22T19:52:59.719Z,101796.94
2023-01-22T19:57:58.549Z,101796.06
2023-01-22T20:02:57.486Z,101800.06
2023-01-22T20:07:59.463Z,101807.06
2023-01-22T20:12:58.410Z,101816.38
2023-01-22T20:17:57.787Z,101819.72
2023-01-22T20:22:56.706Z,101830.06
2023-01-22T20:27:56.896Z,101830.47
2023-01-22T20:32:56.702Z,101833.66
2023-01-22T20:37:55.474Z,101833.25
2023-01-22T20:42:54.137Z,101837.06
2023-01-22T20:47:54.389Z,101837.38
2023-01-22T20:52:54.913Z,101834.50
2023-01-22T20:57:53.667Z,101835.75
2023-01-22T21:02:53.866Z,101837.72
2023-01-22T21:07:52.673Z,101850.34
2023-01-22T21:12:51.627Z,101863.53
2023-01-22T21:17:50.523Z,101861.63
2023-01-22T21:22:51.242Z,101865.88
2023-01-22T21:27:51.227Z,101883.09
2023-01-22T21:32:52.433Z,101883.09
2023-01-22T21:37:52.579Z,101888.06
2023-01-22T21:43:09.030Z,101887.94
2023-01-22T21:48:08.244Z,101889.56
2023-01-22T21:53:08.866Z,101896.03
2023-01-22T21:58:08.925Z,101906.56
2023-01-22T22:03:07.774Z,101904.38
2023-01-22T22:08:08.185Z,101895.41
2023-01-22T22:13:06.976Z,101893.50
2023-01-22T22:18:05.961Z,101895.16
2023-01-22T22:23:05.079Z,101881.28
2023-01-22T22:28:05.652Z,101878.91
2023-01-22T22:33:04.457Z,101883.78
2023-01-22T22:38:03.292Z,101890.69
2023-01-22T22:43:02.032Z,101895.59
2023-01-22T22:48:02.218Z,101886.91
2023-01-22T22:53:02.316Z,101910.41
2023-01-22T22:58:01.091Z,101915.75
2023-01-22T23:03:01.181Z,101921.41
2023-01-22T23:08:00.038Z,101930.03
2023-01-22T23:13:00.868Z,101936.91
2023-01-22T23:18:01.937Z,101937.97
2023-01-22T23:23:00.823Z,101946.28
2023-01-22T23:27:59.633Z,101943.81
2023-01-22T23:32:58.484Z,101941.97
2023-01-22T23:37:58.677Z,101952.88
2023-01-22T23:42:57.509Z,101959.66
2023-01-22T23:47:56.645Z,101966.19
2023-01-22T23:52:55.327Z,101970.59
2023-01-22T23:57:56.215Z,101980.38
